Time;durP1;ratioP1;P1;durP2;ratioP2;P2;SDS_P1;SDS_P2;PMS_P1;PMS_P2;Temp;Humidity;BMP_temperature;BMP_pressure;BME280_temperature;BME280_humidity;BME280_pressure;Samples;Min_cycle;Max_cycle;Signal;HPM_P1;HPM_P2
2023/05/10 00:00:10;;;;;;;;;;;20.30;94.00;;;;;;10325041;28;821;-72
2023/05/10 00:05:06;;;;;;;;;;;20.20;94.00;;;;;;10324824;28;1981;-72
2023/05/10 00:10:01;;;;;;;;;;;20.20;94.00;;;;;;10331382;28;939;-72
2023/05/10 00:14:56;;;;;;;;;;;20.20;93.90;;;;;;10338834;28;862;-71
2023/05/10 00:19:52;;;;;;;;;;;20.20;94.00;;;;;;10338752;28;801;-71
2023/05/10 00:24:47;;;;;;;;;;;20.20;94.00;;;;;;10339203;28;1969;-71
2023/05/10 00:29:42;;;;;;;;;;;20.20;94.00;;;;;;10338488;28;880;-71
2023/05/10 00:34:38;;;;;;;;;;;20.20;94.10;;;;;;10338389;28;1011;-71
2023/05/10 00:39:33;;;;;;;;;;;20.20;94.10;;;;;;10338393;28;880;-72
2023/05/10 00:44:29;;;;;;;;;;;20.20;94.10;;;;;;10338279;28;1960;-72
2023/05/10 00:49:24;;;;;;;;;;;20.20;94.10;;;;;;10338622;28;1558;-71
2023/05/10 00:54:19;;;;;;;;;;;20.20;94.00;;;;;;10338130;28;1654;-72
2023/05/10 00:59:16;;;;;;;;;;;20.20;94.00;;;;;;10338540;28;1130;-72
2023/05/10 01:04:12;;;;;;;;;;;20.20;93.90;;;;;;10338385;28;1918;-71
2023/05/10 01:09:08;;;;;;;;;;;20.20;93.90;;;;;;10337757;28;861;-72
2023/05/10 01:14:03;;;;;;;;;;;20.20;93.90;;;;;;10337678;28;893;-71
2023/05/10 01:18:58;;;;;;;;;;;20.20;94.00;;;;;;10338187;28;952;-71
2023/05/10 01:23:54;;;;;;;;;;;20.10;93.80;;;;;;10330428;28;1973;-71
2023/05/10 01:28:49;;;;;;;;;;;20.10;93.80;;;;;;10330938;28;774;-72
2023/05/10 01:33:45;;;;;;;;;;;20.10;93.80;;;;;;10330677;28;961;-72
2023/05/10 01:38:40;;;;;;;;;;;20.20;93.90;;;;;;10330621;28;814;-72
2023/05/10 01:43:35;;;;;;;;;;;20.10;93.90;;;;;;10330425;28;852;-71
2023/05/10 01:48:31;;;;;;;;;;;20.20;93.90;;;;;;10330947;28;1902;-72
2023/05/10 01:53:26;;;;;;;;;;;20.10;93.90;;;;;;10329984;28;945;-71
2023/05/10 01:58:22;;;;;;;;;;;20.10;93.80;;;;;;10330496;28;777;-71
2023/05/10 02:03:17;;;;;;;;;;;20.10;93.90;;;;;;10329608;28;886;-71
2023/05/10 02:08:12;;;;;;;;;;;20.10;93.90;;;;;;10329626;28;1979;-71
2023/05/10 02:13:08;;;;;;;;;;;20.10;94.00;;;;;;10329277;28;766;-72
2023/05/10 02:18:03;;;;;;;;;;;20.10;93.90;;;;;;10329649;28;785;-71
2023/05/10 02:22:58;;;;;;;;;;;20.10;94.00;;;;;;10329475;28;873;-71
2023/05/10 02:27:54;;;;;;;;;;;20.10;93.90;;;;;;10328544;28;1898;-71
2023/05/10 02:32:49;;;;;;;;;;;20.10;94.00;;;;;;10328911;28;858;-72
2023/05/10 02:37:45;;;;;;;;;;;20.10;93.90;;;;;;10329008;28;826;-72
2023/05/10 02:42:40;;;;;;;;;;;20.00;93.80;;;;;;10327415;28;784;-71
2023/05/10 02:47:35;;;;;;;;;;;20.10;93.80;;;;;;10327744;28;1906;-71
2023/05/10 02:52:31;;;;;;;;;;;20.00;93.80;;;;;;10328197;28;893;-71
2023/05/10 02:57:26;;;;;;;;;;;20.10;94.00;;;;;;10327401;28;827;-71
2023/05/10 03:02:21;;;;;;;;;;;20.10;94.00;;;;;;10327980;28;809;-72
2023/05/10 03:07:19;;;;;;;;;;;20.00;93.80;;;;;;10327016;28;1910;-72
2023/05/10 03:12:14;;;;;;;;;;;20.00;93.80;;;;;;10326820;28;866;-71
2023/05/10 03:17:09;;;;;;;;;;;20.00;93.80;;;;;;10326727;28;763;-71
2023/05/10 03:22:05;;;;;;;;;;;20.00;93.80;;;;;;10327104;28;977;-71
2023/05/10 03:27:03;;;;;;;;;;;20.00;93.70;;;;;;10326337;28;1915;-71
2023/05/10 03:31:59;;;;;;;;;;;20.00;93.70;;;;;;10327075;28;871;-71
2023/05/10 03:36:55;;;;;;;;;;;20.00;93.70;;;;;;10326149;28;844;-71
2023/05/10 03:41:50;;;;;;;;;;;20.00;93.60;;;;;;10326023;28;868;-71
2023/05/10 03:46:46;;;;;;;;;;;20.00;94.00;;;;;;10324874;28;1963;-71
2023/05/10 03:51:41;;;;;;;;;;;20.00;93.60;;;;;;10326339;28;947;-71
2023/05/10 03:56:36;;;;;;;;;;;20.00;93.80;;;;;;10326313;28;902;-71
2023/05/10 04:01:32;;;;;;;;;;;20.00;93.70;;;;;;10325567;28;777;-71
2023/05/10 04:06:27;;;;;;;;;;;20.00;93.80;;;;;;10325371;28;1981;-72
2023/05/10 04:11:24;;;;;;;;;;;20.00;93.80;;;;;;10325888;28;820;-71
2023/05/10 04:16:19;;;;;;;;;;;20.00;93.70;;;;;;10325465;28;1010;-71
2023/05/10 04:21:15;;;;;;;;;;;20.00;93.80;;;;;;10324594;28;984;-71
2023/05/10 04:26:10;;;;;;;;;;;20.00;93.70;;;;;;10325040;28;1906;-71
2023/05/10 04:31:06;;;;;;;;;;;20.00;93.70;;;;;;10325564;28;865;-71
2023/05/10 04:36:01;;;;;;;;;;;20.00;93.80;;;;;;10324874;28;782;-71
2023/05/10 04:40:56;;;;;;;;;;;20.00;93.70;;;;;;10324252;28;1675;-72
2023/05/10 04:45:52;;;;;;;;;;;20.00;93.60;;;;;;10325042;28;1897;-71
2023/05/10 04:50:47;;;;;;;;;;;20.10;93.60;;;;;;10324661;28;826;-72
2023/05/10 04:55:42;;;;;;;;;;;20.00;93.70;;;;;;10325512;28;798;-71
2023/05/10 05:00:38;;;;;;;;;;;20.10;93.70;;;;;;10332627;28;798;-71
2023/05/10 05:05:33;;;;;;;;;;;20.10;93.70;;;;;;10331857;28;1914;-70
2023/05/10 05:10:29;;;;;;;;;;;20.00;93.70;;;;;;10332308;28;833;-71
2023/05/10 05:15:25;;;;;;;;;;;20.10;93.60;;;;;;10332072;28;849;-71
2023/05/10 05:20:20;;;;;;;;;;;20.10;93.70;;;;;;10331410;28;806;-71
2023/05/10 05:25:15;;;;;;;;;;;20.10;93.70;;;;;;10331672;28;1915;-71
2023/05/10 05:30:11;;;;;;;;;;;20.10;93.70;;;;;;10330967;28;850;-71
2023/05/10 05:35:06;;;;;;;;;;;20.10;93.70;;;;;;10331431;28;1010;-71
2023/05/10 05:40:02;;;;;;;;;;;20.10;93.80;;;;;;10330603;28;1519;-71
2023/05/10 05:44:57;;;;;;;;;;;20.10;93.80;;;;;;10329718;28;1985;-71
2023/05/10 05:49:53;;;;;;;;;;;20.00;93.70;;;;;;10329844;28;1259;-71
2023/05/10 05:54:48;;;;;;;;;;;20.00;93.70;;;;;;10330059;28;1381;-72
2023/05/10 05:59:44;;;;;;;;;;;20.00;93.70;;;;;;10329871;28;761;-71
2023/05/10 06:04:39;;;;;;;;;;;20.10;93.80;;;;;;10329592;28;1887;-71
2023/05/10 06:09:35;;;;;;;;;;;20.00;93.70;;;;;;10330354;28;824;-71
2023/05/10 06:14:30;;;;;;;;;;;20.00;93.70;;;;;;10329268;28;951;-71
2023/05/10 06:19:26;;;;;;;;;;;20.00;93.70;;;;;;10329044;28;806;-71
2023/05/10 06:24:21;;;;;;;;;;;20.00;93.60;;;;;;10329746;28;1902;-72
2023/05/10 06:29:17;;;;;;;;;;;20.00;93.70;;;;;;10328621;28;844;-72
2023/05/10 06:34:13;;;;;;;;;;;19.90;93.70;;;;;;10328706;28;909;-72
2023/05/10 06:39:08;;;;;;;;;;;20.00;93.70;;;;;;10328214;28;985;-71
2023/05/10 06:44:04;;;;;;;;;;;19.90;93.80;;;;;;10328539;28;1977;-68
2023/05/10 06:48:59;;;;;;;;;;;20.00;94.00;;;;;;10328853;28;1172;-68
2023/05/10 06:53:55;;;;;;;;;;;20.00;94.10;;;;;;10327667;28;855;-68
2023/05/10 06:58:50;;;;;;;;;;;19.90;93.30;;;;;;10327494;28;877;-68
2023/05/10 07:03:46;;;;;;;;;;;20.00;94.30;;;;;;10327259;28;797;-68
2023/05/10 07:08:41;;;;;;;;;;;19.90;93.50;;;;;;10327021;28;1911;-68
2023/05/10 07:13:38;;;;;;;;;;;20.00;94.20;;;;;;10326275;28;945;-68
2023/05/10 07:18:34;;;;;;;;;;;20.00;94.50;;;;;;10325418;28;990;-68
2023/05/10 09:15:32;;;;;;;;;;;;;;;;;;10401992;27;1454;-66
2023/05/10 09:20:28;;;;;;;;;;;;;;;;;;10402153;28;885;-66
2023/05/10 09:25:24;;;;;;;;;;;;;;;;;;10401981;28;873;-66
2023/05/10 09:30:22;;;;;;;;;;;;;;;;;;10402193;28;1914;-66
2023/05/10 09:35:18;;;;;;;;;;;;;;;;;;10400974;28;889;-66
2023/05/10 09:40:15;;;;;;;;;;;;;;;;;;10401278;28;899;-66
2023/05/10 09:45:11;;;;;;;;;;;;;;;;;;10401956;28;872;-67
2023/05/10 09:50:07;;;;;;;;;;;;;;;;;;10401481;28;770;-67
2023/05/10 09:55:04;;;;;;;;;;;;;;;;;;10400608;28;1882;-67
2023/05/10 10:00:00;;;;;;;;;;;;;;;;;;10400487;28;869;-67
2023/05/10 10:04:56;;;;;;;;;;;;;;;;;;10401488;28;930;-67
2023/05/10 10:09:52;;;;;;;;;;;;;;;;;;10400727;28;805;-67
2023/05/10 10:14:49;;;;;;;;;;;;;;;;;;10418004;28;1952;-67
2023/05/10 10:19:45;;;;;;;;;;;;;;;;;;10413587;28;1618;-67
2023/05/10 10:24:41;;;;;;;;;;;;;;;;;;10413447;28;825;-67
2023/05/10 10:29:37;;;;;;;;;;;;;;;;;;10413830;28;794;-67
2023/05/10 10:34:32;;;;;;;;;;;;;;;;;;10412996;28;1906;-68
2023/05/10 10:39:29;;;;;;;;;;;;;;;;;;10412831;28;822;-68
2023/05/10 10:44:25;;;;;;;;;;;;;;;;;;10413204;28;960;-68
2023/05/10 10:49:21;;;;;;;;;;;;;;;;;;10412379;28;894;-68
2023/05/10 10:54:16;;;;;;;;;;;;;;;;;;10412154;28;1969;-68
2023/05/10 10:59:12;;;;;;;;;;;;;;;;;;10412748;28;931;-71
2023/05/10 11:04:08;;;;;;;;;;;;;;;;;;10412550;28;900;-73
2023/05/10 11:09:05;;;;;;;;;;;;;;;;;;10411862;28;798;-73
2023/05/10 11:14:01;;;;;;;;;;;;;;;;;;10411748;28;1889;-73
2023/05/10 11:18:56;;;;;;;;;;;;;;;;;;10411958;28;896;-73
2023/05/10 11:23:55;;;;;;;;;;;;;;;;;;10410405;28;900;-72
2023/05/10 11:28:51;;;;;;;;;;;;;;;;;;10411762;28;954;-73
2023/05/10 11:33:47;;;;;;;;;;;;;;;;;;10410644;28;1914;-73
2023/05/10 11:43:06;;;;;;;;;;;;;;;;;;10360861;28;1396;-72
2023/05/10 11:48:01;;;;;;;;;;;;;;;;;;10361372;28;1633;-72
2023/05/10 11:52:58;;;;;;;;;;;;;;;;;;10360961;28;908;-69
2023/05/10 11:57:54;;;;;;;;;;;;;;;;;;10361403;28;797;-71
2023/05/10 12:02:50;;;;;;;;;;;;;;;;;;10361254;28;1905;-71
2023/05/10 12:07:46;;;;;;;;;;;;;;;;;;10360296;28;858;-71
2023/05/10 12:12:42;;;;;;;;;;;;;;;;;;10360278;28;759;-71
2023/05/10 12:17:39;;;;;;;;;;;;;;;;;;10360043;28;778;-71
2023/05/10 12:22:35;;;;;;;;;;;;;;;;;;10359685;28;1890;-71
2023/05/10 12:27:30;;;;;;;;;;;;;;;;;;10360282;28;825;-71
2023/05/10 12:32:26;;;;;;;;;;;;;;;;;;10358808;28;899;-71
2023/05/10 12:37:22;;;;;;;;;;;;;;;;;;10359274;28;844;-71
2023/05/10 12:42:18;;;;;;;;;;;;;;;;;;10360129;28;1941;-71
2023/05/10 12:47:14;;;;;;;;;;;;;;;;;;10359505;28;835;-71
2023/05/10 12:52:10;;;;;;;;;;;;;;;;;;10343856;28;967;-70
2023/05/10 12:57:06;;;;;;;;;;;;;;;;;;10331429;28;913;-67
2023/05/10 13:02:02;;;;;;;;;;;;;;;;;;10331267;28;1981;-67
2023/05/10 13:06:58;;;;;;;;;;;;;;;;;;10330486;28;883;-67
2023/05/10 13:11:55;;;;;;;;;;;;;;;;;;10330444;28;950;-67
2023/05/10 13:16:50;;;;;;;;;;;;;;;;;;10330121;28;901;-67
2023/05/10 13:21:46;;;;;;;;;;;;;;;;;;10329370;28;1890;-67
2023/05/10 13:26:42;;;;;;;;;;;;;;;;;;10329196;28;856;-67
2023/05/10 13:31:38;;;;;;;;;;;;;;;;;;10329106;28;1162;-67
2023/05/10 13:36:34;;;;;;;;;;;;;;;;;;10329944;28;750;-67
2023/05/10 13:41:30;;;;;;;;;;;;;;;;;;10329262;28;1917;-67
2023/05/10 13:46:26;;;;;;;;;;;;;;;;;;10329550;28;899;-67
2023/05/10 13:51:22;;;;;;;;;;;;;;;;;;10329439;28;939;-67
2023/05/10 13:56:17;;;;;;;;;;;;;;;;;;10327935;28;915;-67
2023/05/10 14:01:13;;;;;;;;;;;;;;;;;;10328873;28;1898;-67
2023/05/10 14:06:09;;;;;;;;;;;;;;;;;;10327393;28;858;-67
2023/05/10 14:11:05;;;;;;;;;;;;;;;;;;10328748;28;804;-67
2023/05/10 14:16:01;;;;;;;;;;;;;;;;;;10327863;28;811;-68
2023/05/10 14:20:57;;;;;;;;;;;;;;;;;;10326894;28;1890;-67
2023/05/10 14:25:53;;;;;;;;;;;;;;;;;;10328089;28;923;-67
2023/05/10 14:30:49;;;;;;;;;;;;;;;;;;10327276;28;837;-66
2023/05/10 14:35:46;;;;;;;;;;;;;;;;;;10327235;28;793;-67
2023/05/10 14:40:42;;;;;;;;;;;;;;;;;;10328142;28;1906;-67
2023/05/10 14:45:38;;;;;;;;;;;;;;;;;;10326831;28;949;-67
2023/05/10 14:50:34;;;;;;;;;;;;;;;;;;10327330;28;915;-67
2023/05/10 14:55:30;;;;;;;;;;;;;;;;;;10327053;28;820;-67
2023/05/10 15:00:26;;;;;;;;;;;;;;;;;;10326870;28;1922;-67
2023/05/10 15:05:21;;;;;;;;;;;;;;;;;;10326787;28;821;-67
2023/05/10 15:10:17;;;;;;;;;;;;;;;;;;10325634;28;978;-67
2023/05/10 15:15:13;;;;;;;;;;;;;;;;;;10325265;28;959;-67
2023/05/10 15:20:09;;;;;;;;;;;;;;;;;;10326198;28;1929;-67
2023/05/10 15:25:05;;;;;;;;;;;;;;;;;;10325768;28;769;-71
2023/05/10 15:30:01;;;;;;;;;;;;;;;;;;10325650;28;746;-69
2023/05/10 15:34:57;;;;;;;;;;;;;;;;;;10325502;28;824;-70
2023/05/10 15:39:53;;;;;;;;;;;;;;;;;;10325491;28;1890;-67
2023/05/10 15:44:50;;;;;;;;;;;;;;;;;;10325984;28;879;-67
2023/05/10 15:49:45;;;;;;;;;;;;;;;;;;10325210;28;964;-66
2023/05/10 15:54:41;;;;;;;;;;;;;;;;;;10325800;28;785;-67
2023/05/10 15:59:37;;;;;;;;;;;;;;;;;;10324965;28;1976;-67
2023/05/10 16:04:33;;;;;;;;;;;;;;;;;;10325252;28;868;-67
2023/05/10 16:09:29;;;;;;;;;;;;;;;;;;10324742;28;1029;-67
2023/05/10 16:14:25;;;;;;;;;;;;;;;;;;10324701;28;932;-67
2023/05/10 16:19:21;;;;;;;;;;;;;;;;;;10324564;28;1939;-66
2023/05/10 16:24:17;;;;;;;;;;;;;;;;;;10325121;28;1638;-67
2023/05/10 16:29:13;;;;;;;;;;;;;;;;;;10331484;28;863;-67
2023/05/10 16:34:12;;;;;;;;;;;;;;;;;;10331443;28;848;-67
2023/05/10 16:39:08;;;;;;;;;;;;;;;;;;10331851;28;1894;-67
2023/05/10 16:44:04;;;;;;;;;;;;;;;;;;10331609;28;954;-67
2023/05/10 16:49:00;;;;;;;;;;;;;;;;;;10331493;28;779;-67
2023/05/10 16:53:56;;;;;;;;;;;;;;;;;;10331281;28;762;-67
2023/05/10 16:58:52;;;;;;;;;;;;;;;;;;10331053;28;1966;-67
2023/05/10 17:03:48;;;;;;;;;;;;;;;;;;10330920;28;828;-67
2023/05/10 17:08:44;;;;;;;;;;;;;;;;;;10331321;28;839;-67
2023/05/10 17:13:40;;;;;;;;;;;;;;;;;;10331664;28;880;-67
2023/05/10 17:18:36;;;;;;;;;;;;;;;;;;10330917;28;1910;-67
2023/05/10 17:23:32;;;;;;;;;;;;;;;;;;10330237;28;832;-67
2023/05/10 17:28:28;;;;;;;;;;;;;;;;;;10330642;28;864;-67
2023/05/10 17:33:23;;;;;;;;;;;;;;;;;;10329217;28;758;-67
2023/05/10 17:38:19;;;;;;;;;;;;;;;;;;10329259;28;1949;-67
2023/05/10 17:43:15;;;;;;;;;;;;;;;;;;10330106;28;1378;-67
2023/05/10 17:48:12;;;;;;;;;;;;;;;;;;10330297;28;810;-67
2023/05/10 17:53:08;;;;;;;;;;;;;;;;;;10329553;28;837;-67
2023/05/10 17:58:03;;;;;;;;;;;;;;;;;;10328211;28;923;-67
2023/05/10 18:03:00;;;;;;;;;;;;;;;;;;10328553;28;1971;-67
2023/05/10 18:07:56;;;;;;;;;;;;;;;;;;10328660;28;774;-66
2023/05/10 18:12:52;;;;;;;;;;;;;;;;;;10328347;28;893;-67
2023/05/10 18:17:48;;;;;;;;;;;;;;;;;;10327981;28;856;-67
2023/05/10 18:22:43;;;;;;;;;;;;;;;;;;10328491;28;1890;-67
2023/05/10 18:27:39;;;;;;;;;;;;;;;;;;10327037;28;911;-67
2023/05/10 18:32:37;;;;;;;;;;;;;;;;;;10327441;28;781;-67
2023/05/10 18:37:33;;;;;;;;;;;;;;;;;;10327147;28;865;-67
2023/05/10 18:42:28;;;;;;;;;;;;;;;;;;10327285;28;1890;-67
2023/05/10 18:47:25;;;;;;;;;;;;;;;;;;10326277;28;994;-67
2023/05/10 18:52:21;;;;;;;;;;;;;;;;;;10326126;28;915;-67
2023/05/10 18:57:17;;;;;;;;;;;;;;;;;;10327846;28;825;-67
2023/05/10 19:02:13;;;;;;;;;;;;;;;;;;10326264;28;1971;-67
2023/05/10 19:07:08;;;;;;;;;;;;;;;;;;10325678;28;861;-67
2023/05/10 19:12:04;;;;;;;;;;;;;;;;;;10325601;28;950;-66
2023/05/10 19:17:00;;;;;;;;;;;;;;;;;;10325985;28;848;-67
2023/05/10 19:21:56;;;;;;;;;;;;;;;;;;10325798;28;1937;-67
2023/05/10 19:26:52;;;;;;;;;;;;;;;;;;10325919;28;888;-67
2023/05/10 19:31:48;;;;;;;;;;;;;;;;;;10325016;28;935;-67
2023/05/10 19:36:44;;;;;;;;;;;;;;;;;;10325482;28;854;-67
2023/05/10 19:41:40;;;;;;;;;;;;;;;;;;10325571;28;1965;-66
2023/05/10 19:46:35;;;;;;;;;;;;;;;;;;10326029;28;977;-67
2023/05/10 19:51:31;;;;;;;;;;;;;;;;;;10325287;28;796;-66
2023/05/10 19:56:28;;;;;;;;;;;;;;;;;;10325818;28;868;-66
2023/05/10 20:01:24;;;;;;;;;;;;;;;;;;10327829;28;1914;-67
2023/05/10 20:06:20;;;;;;;;;;;;;;;;;;10333362;28;873;-66
2023/05/10 20:11:16;;;;;;;;;;;;;;;;;;10332955;28;951;-67
2023/05/10 20:16:11;;;;;;;;;;;;;;;;;;10332801;28;761;-66
2023/05/10 20:21:07;;;;;;;;;;;;;;;;;;10333107;28;1947;-67
2023/05/10 20:26:03;;;;;;;;;;;;;;;;;;10333543;28;973;-67
2023/05/10 20:31:00;;;;;;;;;;;;;;;;;;10332171;28;967;-67
2023/05/10 20:35:56;;;;;;;;;;;;;;;;;;10331992;28;797;-67
2023/05/10 20:40:52;;;;;;;;;;;;;;;;;;10332522;28;1978;-67
2023/05/10 20:45:48;;;;;;;;;;;;;;;;;;10331863;28;900;-67
2023/05/10 20:50:44;;;;;;;;;;;;;;;;;;10331439;28;879;-67
2023/05/10 20:55:40;;;;;;;;;;;;;;;;;;10332124;28;877;-66
2023/05/10 21:00:36;;;;;;;;;;;;;;;;;;10331612;28;1890;-66
2023/05/10 21:05:32;;;;;;;;;;;;;;;;;;10330933;28;912;-66
2023/05/10 21:10:27;;;;;;;;;;;;;;;;;;10331379;28;880;-67
2023/05/10 21:15:24;;;;;;;;;;;;;;;;;;10330059;28;914;-66
2023/05/10 21:20:20;;;;;;;;;;;;;;;;;;10330867;28;1965;-66
2023/05/10 21:25:19;;;;;;;;;;;;;;;;;;10330486;28;752;-66
2023/05/10 21:30:15;;;;;;;;;;;;;;;;;;10329414;28;939;-66
2023/05/10 21:35:11;;;;;;;;;;;;;;;;;;10329806;28;754;-66
2023/05/10 21:40:06;;;;;;;;;;;;;;;;;;10329311;28;1995;-67
2023/05/10 21:45:02;;;;;;;;;;;;;;;;;;10330260;28;860;-67
2023/05/10 21:49:58;;;;;;;;;;;;;;;;;;10329223;28;852;-66
2023/05/10 21:54:54;;;;;;;;;;;;;;;;;;10329396;28;1643;-67
2023/05/10 21:59:50;;;;;;;;;;;;;;;;;;10329303;28;1957;-66
2023/05/10 22:04:46;;;;;;;;;;;;;;;;;;10328678;28;912;-66
2023/05/10 22:09:42;;;;;;;;;;;;;;;;;;10329535;28;1021;-66
2023/05/10 22:14:38;;;;;;;;;;;;;;;;;;10328794;28;1043;-67
2023/05/10 22:19:34;;;;;;;;;;;;;;;;;;10327959;28;1895;-67
2023/05/10 22:24:30;;;;;;;;;;;;;;;;;;10327002;28;890;-67
2023/05/10 22:29:26;;;;;;;;;;;;;;;;;;10327602;28;869;-67
2023/05/10 22:34:22;;;;;;;;;;;;;;;;;;10327402;28;861;-66
2023/05/10 22:39:17;;;;;;;;;;;;;;;;;;10326884;28;1979;-67
2023/05/10 22:44:13;;;;;;;;;;;;;;;;;;10327685;28;773;-66
2023/05/10 22:49:10;;;;;;;;;;;;;;;;;;10326273;28;849;-67
2023/05/10 22:54:06;;;;;;;;;;;;;;;;;;10326577;28;863;-67
2023/05/10 22:59:02;;;;;;;;;;;;;;;;;;10325915;28;1885;-67
2023/05/10 23:03:57;;;;;;;;;;;;;;;;;;10326358;28;851;-66
2023/05/10 23:08:53;;;;;;;;;;;;;;;;;;10326259;28;776;-67
2023/05/10 23:13:50;;;;;;;;;;;;;;;;;;10326121;28;752;-67
2023/05/10 23:18:46;;;;;;;;;;;;;;;;;;10326427;28;1886;-67
2023/05/10 23:23:41;;;;;;;;;;;;;;;;;;10326447;28;923;-66
2023/05/10 23:28:37;;;;;;;;;;;;;;;;;;10326349;28;873;-67
2023/05/10 23:33:33;;;;;;;;;;;;;;;;;;10326853;28;896;-66
2023/05/10 23:38:29;;;;;;;;;;;;;;;;;;10325915;28;990;-68
2023/05/10 23:43:25;;;;;;;;;;;;;;;;;;10325392;28;1973;-67
2023/05/10 23:48:21;;;;;;;;;;;;;;;;;;10325355;28;1003;-67
2023/05/10 23:53:17;;;;;;;;;;;;;;;;;;10325253;28;867;-67
2023/05/10 23:58:13;;;;;;;;;;;;;;;;;;10325399;28;809;-67
